Latest Coastal Weather Observations for Hobart

IDT60701

Issued at 3:22 pm EDT Monday 5 December 2016 (issued every 10 minutes, with the page automatically refreshed every 10 minutes)

About coastal observations | Map of coastal stations | Coastal observations for TAS | Marine services | Other Formats
Station Details ID: 094029 Name: HOBART (ELLERSLIE ROAD) Lat: -42.89 Lon: 147.33 Height: 50.5 m
Data from the previous 72 hours. | See also: Recent months at Hobart
Date/Time
EDT
Temp
°C
Wind Pressure Rain since
9am
mm
Weather Cloud Vis
km
Sea
Height
m
Swell
Dir  Spd
kts
Gust
kts
hPa Trend Height
m
Period
s
Dir
05/03:00pm 21.4 NW 15 21 1006.1 - 0.0 - - - - - - -
05/02:47pm 21.6 NW 15 25 1006.0 - 0.0 - - - - - - -
05/02:30pm 21.8 NW 13 22 1005.7 - 0.0 - - - - - - -
05/02:00pm 21.1 NW 20 30 1005.4 - 0.0 - - - - - - -
05/01:36pm 21.1 NW 15 26 1005.0 - 0.0 - - - - - - -
05/01:30pm 20.6 WNW 16 27 1005.0 - 0.0 - - - - - - -
05/01:24pm 20.4 NW 15 27 1004.9 - 0.0 - - - - - - -
05/01:00pm 20.0 NW 12 21 1004.4 - 0.0 - - - - - - -
05/12:30pm 21.2 NW 18 29 1004.1 - 0.0 - - - - - - -
05/12:00pm 20.8 NW 17 32 1003.5 - 0.0 - - - - - - -
05/11:41am 21.2 NW 17 27 1002.9 - 0.0 - - - - - - -
05/11:30am 20.6 NW 17 25 1002.9 - 0.0 - - - - - - -
05/11:00am 20.5 NW 15 25 1002.5 - 0.0 - - - - - - -
05/10:55am 20.5 NW 15 25 1002.4 - 0.0 - - - - - - -
05/10:30am 20.0 NNW 12 23 1002.0 - 0.0 - - - - - - -
05/10:00am 18.8 NW 16 30 1002.3 - 0.0 - - - - - - -
05/09:48am 18.7 NNW 15 29 1002.1 - 0.0 - - - - - - -
05/09:30am 18.0 NW 19 26 1002.1 - 0.0 - - - - - - -
05/09:00am 17.9 NW 16 26 1001.7 - 6.6 - - - - - - -
05/08:30am 17.5 NW 15 26 1001.1 - 6.6 - - - - - - -
05/08:00am 16.7 NNW 20 29 1000.5 - 6.6 - - - - - - -
05/07:32am 16.9 NW 16 29 999.7 - 6.6 - - - - - - -
05/07:30am 16.9 NW 16 23 999.6 - 6.6 - - - - - - -
05/07:01am 17.1 NNW 17 26 998.7 - 6.6 - - - - - - -
05/07:00am 17.1 NNW 17 28 998.7 - 6.6 - - - - - - -
05/06:30am 18.0 NW 19 30 997.8 - 6.6 - - - - - - -
05/06:09am 18.3 WNW 15 25 997.1 - 6.6 - - - - - - -
05/06:00am 18.2 WNW 14 24 997.0 - 6.6 - - - - - - -
05/05:30am 18.5 NW 15 25 996.3 - 6.6 - - - - - - -
05/05:12am 18.7 NW 15 29 995.5 - 6.6 - - - - - - -
05/05:00am 18.5 NW 12 18 995.1 - 6.6 - - - - - - -
05/04:30am 17.9 WNW 7 10 994.5 - 6.6 - - - - - - -
05/04:00am 17.8 NNW 10 15 993.6 - 6.4 - - - - - - -
05/03:30am 17.9 NNW 11 18 993.9 - 5.6 - - - - - - -
05/03:07am 18.5 NW 15 25 994.4 - 3.8 - - - - - - -
05/03:00am 18.8 NNW 16 23 994.2 - 2.8 Rain - - - - - -
05/02:37am 21.1 NNW 15 33 994.4 - 0.0 - - - - - - -
05/02:30am 21.0 NNW 10 19 994.0 - 0.0 - - - - - - -
05/02:00am 19.9 NNE 7 11 994.0 - 0.0 - - - - - - -
05/01:30am 20.1 N 10 16 994.7 - 0.0 - - - - - - -
05/01:00am 19.9 N 10 15 995.7 - 0.0 - - - - - - -
05/12:30am 20.4 NNW 9 14 997.2 - 0.0 - - - - - - -
05/12:00am 20.7 NW 13 21 997.8 - 0.0 - - - - - - -
 
Date/Time
EDT
Temp
°C
Wind Pressure Rain since
9am
mm
Weather Cloud Vis
km
Sea
Height
m
Swell
Dir  Spd
kts
Gust
kts
hPa Trend Height
m
Period
s
Dir
04/11:30pm 21.0 NNW 8 14 998.9 - 0.0 - - - - - - -
04/11:00pm 21.1 N 8 11 999.5 - 0.0 - - - - - - -
04/10:30pm 20.9 NNE 6 10 1000.0 - 0.0 - - - - - - -
04/10:00pm 21.3 N 8 11 1000.7 - 0.0 - - - - - - -
04/09:30pm 21.4 NNW 8 12 1000.7 - 0.0 - - - - - - -
04/09:00pm 21.9 NNW 9 14 1001.2 - 0.0 - - - - - - -
04/08:30pm 22.3 N 9 13 1001.4 - 0.0 - - - - - - -
04/08:00pm 22.2 N 11 16 1001.7 - 0.0 - - - - - - -
04/07:30pm 22.5 N 13 18 1001.6 - 0.0 - - - - - - -
04/07:00pm 23.1 N 12 16 1002.0 - 0.0 - - - - - - -
04/06:30pm 23.2 N 11 17 1002.3 - 0.0 - - - - - - -
04/06:00pm 23.4 NNE 14 22 1002.5 - 0.0 - - - - - - -
04/05:30pm 24.1 NNE 10 17 1002.8 - 0.0 - - - - - - -
04/05:00pm 23.3 ENE 9 15 1003.7 - 0.0 - - - - - - -
04/04:30pm 23.6 ESE 5 10 1004.4 - 0.0 - - - - - - -
04/04:00pm 24.0 NE 6 9 1005.1 - 0.0 - - - - - - -
04/03:30pm 24.7 NE 6 10 1005.8 - 0.0 - - - - - - -
04/03:00pm 24.4 NE 7 10 1006.2 - 0.0 - - - - - - -
04/02:30pm 23.9 NE 7 9 1007.2 - 0.0 - - - - - - -
04/02:00pm 23.9 NE 7 11 1007.8 - 0.0 - - - - - - -
04/01:30pm 23.0 N 7 12 1008.4 - 0.0 - - - - - - -
04/01:00pm 23.4 NNW 7 13 1009.0 - 0.0 - - - - - - -
04/12:30pm 21.6 NNW 9 14 1009.4 - 0.0 - - - - - - -
04/12:00pm 21.5 NNW 13 17 1009.8 - 0.0 - - - - - - -
04/11:30am 20.5 NNW 10 14 1010.4 - 0.0 - - - - - - -
04/11:00am 19.4 N 11 16 1011.0 - 0.0 - - - - - - -
04/10:30am 18.6 NNW 10 13 1011.6 - 0.0 - - - - - - -
04/10:00am 17.4 N 10 16 1011.8 - 0.0 - - - - - - -
04/09:30am 16.3 NNW 9 14 1012.0 - 0.0 - - - - - - -
04/09:00am 15.2 NNW 10 12 1012.3 - 0.0 - - - - - - -
04/08:30am 14.2 N 6 7 1012.5 - 0.0 - - - - - - -
04/08:00am 13.3 NNW 6 8 1012.8 - 0.0 - - - - - - -
04/07:30am 12.3 NNW 7 11 1013.3 - 0.0 - - - - - - -
04/07:00am 11.3 NNW 8 11 1013.4 - 0.0 - - - - - - -
04/06:30am 10.6 NNW 7 9 1013.5 - 0.0 - - - - - - -
04/06:00am 9.3 NW 4 5 1013.3 - 0.0 - - - - - - -
04/05:30am 8.8 W 3 4 1013.0 - 0.0 - - - - - - -
04/05:00am 8.7 NW 2 4 1013.2 - 0.0 - - - - - - -
04/04:30am 9.0 NW 3 5 1013.4 - 0.0 - - - - - - -
04/04:00am 9.4 NW 3 5 1013.6 - 0.0 - - - - - - -
04/03:30am 9.7 W 4 5 1013.8 - 0.0 - - - - - - -
04/03:00am 10.0 W 3 4 1014.1 - 0.0 - - - - - - -
04/02:30am 10.3 W 4 5 1014.3 - 0.0 - - - - - - -
04/02:00am 10.9 WSW 4 5 1014.5 - 0.0 - - - - - - -
04/01:30am 11.7 NW 3 4 1014.8 - 0.0 - - - - - - -
04/01:00am 12.2 WSW 4 6 1015.0 - 0.0 - - - - - - -
04/12:30am 12.2 WSW 6 9 1015.0 - 0.0 - - - - - - -
04/12:00am 12.2 WSW 6 8 1015.1 - 0.0 - - - - - - -
 
Date/Time
EDT
Temp
°C
Wind Pressure Rain since
9am
mm
Weather Cloud Vis
km
Sea
Height
m
Swell
Dir  Spd
kts
Gust
kts
hPa Trend Height
m
Period
s
Dir
03/11:30pm 12.5 WSW 6 8 1015.1 - 0.0 - - - - - - -
03/11:00pm 12.7 SW 7 9 1015.1 - 0.0 - - - - - - -
03/10:30pm 12.7 SSW 8 13 1015.1 - 0.0 - - - - - - -
03/10:00pm 12.9 SSW 8 12 1015.0 - 0.0 - - - - - - -
03/09:30pm 13.3 SSW 9 14 1014.9 - 0.0 - - - - - - -
03/09:00pm 13.5 SW 11 17 1014.6 - 0.0 - - - - - - -
03/08:30pm 13.7 SSW 12 17 1014.3 - 0.0 - - - - - - -
03/08:00pm 14.0 SSW 12 17 1014.3 - 0.0 - - - - - - -
03/07:30pm 14.1 SSW 11 17 1014.1 - 0.0 - - - - - - -
03/07:00pm 14.3 SSW 9 16 1013.8 - 0.0 - - - - - - -
03/06:30pm 14.5 SSW 11 18 1013.5 - 0.0 - - - - - - -
03/06:00pm 15.2 SSW 12 18 1013.4 - 0.0 - - - - - - -
03/05:30pm 15.5 SSW 10 16 1013.3 - 0.0 - - - - - - -
03/05:00pm 15.5 S 9 13 1013.4 - 0.0 - - - - - - -
03/04:30pm 15.2 SSE 13 19 1013.5 - 0.0 - - - - - - -
03/04:00pm 16.8 SE 12 17 1013.1 - 0.0 - - - - - - -
03/03:30pm 17.8 SE 8 10 1013.0 - 0.0 - - - - - - -
03/03:00pm 17.4 SE 10 14 1012.8 - 0.0 - - - - - - -
03/02:30pm 17.1 SE 8 11 1013.1 - 0.0 - - - - - - -
03/02:00pm 16.5 SE 7 10 1013.4 - 0.0 - - - - - - -
03/01:30pm 15.8 SE 9 11 1013.4 - 0.0 - - - - - - -
03/01:00pm 15.7 SE 9 12 1013.3 - 0.0 - - - - - - -
03/12:30pm 15.8 SE 8 11 1013.4 - 0.0 - - - - - - -
03/12:00pm 15.4 ESE 9 12 1013.5 - 0.0 - - - - - - -
03/11:30am 15.2 ESE 7 10 1013.7 - 0.0 - - - - - - -
03/11:00am 15.1 ESE 8 12 1013.6 - 0.0 - - - - - - -
03/10:30am 14.6 ESE 7 11 1013.4 - 0.0 - - - - - - -
03/10:00am 14.9 SE 7 11 1013.4 - 0.0 - - - - - - -
03/09:30am 15.0 NNW 10 15 1013.2 - 0.0 - - - - - - -
03/09:00am 14.7 NNW 7 14 1013.3 - 0.2 - - - - - - -
03/08:30am 13.9 NNW 7 13 1013.3 - 0.2 - - - - - - -
03/08:00am 12.7 NNW 11 15 1013.1 - 0.2 - - - - - - -
03/07:30am 12.4 NNW 10 15 1012.8 - 0.2 - - - - - - -
03/07:00am 11.8 WNW 4 7 1012.7 - 0.2 - - - - - - -
03/06:30am 10.8 NW 9 12 1012.5 - 0.2 - - - - - - -
03/06:00am 10.4 NW 12 16 1012.2 - 0.2 - - - - - - -
03/05:30am 10.5 NW 12 16 1012.1 - 0.2 - - - - - - -
03/05:00am 10.8 NW 12 16 1011.9 - 0.2 - - - - - - -
03/04:30am 11.3 NNW 13 20 1011.6 - 0.2 - - - - - - -
03/04:00am 11.5 N 12 16 1011.3 - 0.2 - - - - - - -
03/03:30am 11.4 N 10 13 1011.1 - 0.2 - - - - - - -
03/03:00am 11.0 NNW 9 14 1011.3 - 0.2 - - - - - - -
03/02:30am 11.3 NNW 7 11 1011.2 - 0.2 - - - - - - -
03/02:00am 11.8 NW 6 10 1011.4 - 0.2 - - - - - - -
03/01:30am 12.1 NNW 7 10 1011.2 - 0.2 - - - - - - -
03/01:00am 12.3 N 7 11 1011.1 - 0.2 - - - - - - -
03/12:30am 12.4 N 8 14 1011.3 - 0.2 - - - - - - -
03/12:00am 12.6 NNW 13 21 1011.4 - 0.2 - - - - - - -
 
Date/Time
EDT
Temp
°C
Wind Pressure Rain since
9am
mm
Weather Cloud Vis
km
Sea
Height
m
Swell
Dir  Spd
kts
Gust
kts
hPa Trend Height
m
Period
s
Dir
02/11:30pm 12.8 NNW 9 14 1011.1 - 0.2 - - - - - - -
02/11:00pm 12.4 WNW 9 15 1011.1 - 0.2 - - - - - - -
02/10:30pm 12.6 NNW 7 9 1011.1 - 0.2 - - - - - - -
02/10:00pm 13.1 NW 11 19 1010.8 - 0.2 - - - - - - -
02/09:30pm 13.0 NW 9 19 1010.7 - 0.2 - - - - - - -
02/09:00pm 13.5 WNW 15 21 1010.1 - 0.2 - - - - - - -
02/08:30pm 13.7 NW 12 19 1009.5 - 0.2 - - - - - - -
02/08:05pm 14.4 WNW 15 27 1009.3 - 0.2 - - - - - - -
02/08:00pm 14.6 NW 12 19 1009.1 - 0.2 - - - - - - -
02/07:30pm 15.9 WNW 10 17 1008.4 - 0.2 - - - - - - -
02/07:00pm 16.2 W 10 17 1008.0 - 0.2 - - - - - - -
02/06:30pm 16.9 WNW 11 21 1007.6 - 0.2 - - - - - - -
02/06:13pm 17.7 NW 15 29 1007.3 - 0.2 - - - - - - -
02/06:00pm 18.2 NW 15 24 1007.0 - 0.2 - - - - - - -
02/05:37pm 18.9 WNW 14 27 1006.7 - 0.2 - - - - - - -
02/05:30pm 19.2 W 13 23 1006.6 - 0.2 - - - - - - -
02/05:00pm 19.6 WNW 11 17 1006.5 - 0.2 - - - - - - -
02/04:30pm 19.6 W 14 24 1006.4 - 0.2 - - - - - - -
02/04:12pm 19.7 NW 17 29 1006.1 - 0.2 - - - - - - -
02/04:00pm 19.6 NW 17 25 1006.0 - 0.2 - - - - - - -
02/03:50pm 20.2 WNW 15 28 1005.8 - 0.2 - - - - - - -
02/03:30pm 20.3 NW 16 23 1005.7 - 0.2 - - - - - - -

Other Formats:

Comma delimited format used in spreadsheet applications
http://www.bom.gov.au/fwo/IDT60701/IDT60701.94970.axf

JavaScript Object Notation format (JSON) in row-major order
http://www.bom.gov.au/fwo/IDT60701/IDT60701.94970.json